• Join FlightAware (Why Join?)
  • Login
  • US Flag 
02:14AM EST


 

Airport Tracker/Info


-or-


 

Live Flight TrackerFlight Track Log ✈ UAL3746 ✈ 01-May-2013 ✈ KMHT - KORD

Flight Track Log - Related Links

Times and Time Zones

All times are in EDT time to prevent confusion due to time zone crossing. See the UAL3746 flight status page for this flight to view local times or setup timezone preferences in your user account.

Time Position Orientation Groundspeed Altitude Reporting Facility
EDT Latitude Longitude Course Direction KTS MPH feet Rate Location/Type
05:27PM 42.8653 -71.4656 215° Southwest 166 191 3,700  Level Boston Center
05:28PM 42.8867 -71.5389 292° West 166 191 5,300 2,580 Climbing Boston Center
05:29PM 42.9461 -71.8651 279° West  Level FlightAware Approximate
05:29PM 42.9289 -71.6319 302° West 249 287 8,900  Level Boston Center
05:30PM 42.9500 -72.0101 270° West  Level FlightAware Approximate
05:30PM 42.9756 -71.7250 304° West 287 330 10,500  Level Boston Center
05:31PM 42.9500 -72.1555 270° West  Level FlightAware Approximate
05:31PM 43.0178 -71.8408 297° West 332 382 12,000  Level Boston Center
05:32PM 43.0289 -71.9828 276° West 362 417 13,700 1,860 Climbing Boston Center
05:33PM 43.0356 -72.1306 274° West 390 449 15,800 1,800 Climbing Boston Center
05:34PM 43.0442 -72.2811 275° West 400 460 17,300 1,320 Climbing Boston Center
05:35PM 43.0528 -72.4428 274° West 412 474 18,500 1,200 Climbing Boston Center
05:36PM 43.0631 -72.5850 276° West 417 480 19,800 1,380 Climbing Boston Center
05:37PM 43.0628 -72.7442 270° West 422 486 21,300 1,320 Climbing Boston Center
05:38PM 43.0831 -72.9064 280° West 428 493 22,500 1,200 Climbing Boston Center
05:39PM 43.1050 -73.0914 279° West 434 499 23,800 1,200 Climbing Boston Center
05:40PM 43.1269 -73.2594 280° West 445 512 24,900 960 Climbing Boston Center
05:41PM 43.1403 -73.4133 277° West 453 521 25,800 900 Climbing Boston Center
05:42PM 43.1594 -73.5814 279° West 453 521 26,800 1,020 Climbing Boston Center
05:43PM 43.1594 -73.7806 270° West 464 534 27,900 1,020 Climbing Boston Center
05:44PM 43.1636 -73.9572 272° West 464 534 28,900 960 Climbing Boston Center
05:45PM 43.1631 -74.1367 270° West 464 534 29,900 900 Climbing Boston Center
05:46PM 43.1644 -74.3189 271° West 474 545 30,700 780 Climbing Boston Center
05:47PM 43.1656 -74.4953 271° West 474 545 31,500 780 Climbing Boston Center
05:48PM 43.1683 -74.6778 271° West 474 545 32,300 780 Climbing Boston Center
05:49PM 43.1667 -74.8628 269° West 474 545 33,100 720 Climbing Boston Center
05:50PM 43.1672 -75.0222 270° West 474 545 33,800 720 Climbing Boston Center
05:51PM 43.1650 -75.2042 269° West 479 551 34,600 780 Climbing Boston Center
05:52PM 43.1647 -75.3892 270° West 479 551 35,400 660 Climbing Boston Center
05:53PM 43.1661 -75.5689 271° West 479 551 36,000 300 Climbing Boston Center
05:54PM 43.1650 -75.7539 270° West 479 551 36,000  Level Boston Center
05:55PM 43.1636 -75.9389 269° West 479 551 36,000  Level Boston Center
05:56PM 43.1619 -76.1267 269° West 486 559 36,000  Level Boston Center
05:59PM 43.1606 -76.7178 270° West 492 566 36,000  Level Cleveland Center
06:00PM 43.1597 -76.8831 270° West 492 566 36,000  Level Cleveland Center
06:01PM 43.1592 -77.0653 270° West 487 560 36,000  Level Cleveland Center
06:02PM 43.1564 -77.2533 269° West 487 560 36,000  Level Cleveland Center
06:03PM 43.1572 -77.4325 270° West 487 560 36,000  Level Cleveland Center
06:04PM 43.1558 -77.6147 269° West 487 560 36,000  Level Cleveland Center
06:05PM 43.1519 -77.7972 268° West 487 560 36,000  Level Cleveland Center
06:06PM 43.1500 -77.9794 269° West 482 555 36,000  Level Cleveland Center
06:07PM 43.1458 -78.1789 268° West 482 555 36,000  Level Cleveland Center
06:08PM 43.1433 -78.3611 269° West 482 555 36,000  Level Cleveland Center
06:09PM 43.1383 -78.5406 268° West 477 549 36,000  Level Cleveland Center
06:10PM 43.1350 -78.7169 269° West 477 549 36,000  Level Cleveland Center
06:11PM 43.1294 -78.9019 268° West 482 555 36,000  Level Cleveland Center
06:12PM 43.1167 -78.9500 250° West 470 541 36,000  Level Toronto Center
06:13PM 43.1167 -79.1333 270° West 450 518 36,000  Level Toronto Center
06:14PM 43.1000 -79.2833 261° West 450 518 36,000  Level Toronto Center
06:15PM 43.1000 -79.4500 270° West 450 518 36,000  Level Toronto Center
06:16PM 43.1000 -79.6333 270° West 450 518 36,000  Level Toronto Center
06:17PM 43.0833 -79.8167 263° West 450 518 36,000  Level Toronto Center
06:18PM 43.0833 -79.9833 270° West 450 518 36,000  Level Toronto Center
06:19PM 43.0667 -80.1500 262° West 460 529 36,000  Level Toronto Center
06:20PM 43.0667 -80.3167 270° West 460 529 36,000  Level Toronto Center
06:21PM 43.0667 -80.5000 270° West 460 529 36,000  Level Toronto Center
06:22PM 43.0500 -80.6667 262° West 450 518 36,000  Level Toronto Center
06:23PM 43.0333 -80.8500 263° West 440 506 36,000  Level Toronto Center
06:24PM 43.0333 -81.0000 270° West 440 506 36,000  Level Toronto Center
06:25PM 43.0167 -81.1833 263° West 440 506 36,000  Level Toronto Center
06:26PM 43.0167 -81.3500 270° West 450 518 36,000  Level Toronto Center
06:27PM 43.0167 -81.5333 270° West 460 529 36,000  Level Toronto Center
06:28PM 43.0167 -81.6833 270° West 460 529 36,000  Level Toronto Center
06:29PM 43.0167 -81.8667 270° West 450 518 36,000  Level Toronto Center
06:30PM 43.0000 -82.0333 262° West 440 506 36,000  Level Toronto Center
06:31PM 43.0000 -82.1833 270° West 440 506 36,000  Level Toronto Center
06:32PM 43.0000 -82.3667 270° West 450 518 36,000 -120 Level Toronto Center
06:33PM 43.0000 -82.5333 270° West 450 518 35,800 -600 Descending Toronto Center
06:34PM 43.0014 -82.7039 271° West 446 513 34,900 -900 Descending Cleveland Center
06:35PM 42.9961 -82.8739 268° West 453 521 34,000 -600 Descending Cleveland Center
06:36PM 42.9925 -83.0469 268° West 453 521 33,700 -660 Descending Cleveland Center
06:37PM 42.9844 -83.2197 266° West 459 528 32,700 -900 Descending Cleveland Center
06:38PM 42.9783 -83.3928 267° West 459 528 32,000 -360 Descending Cleveland Center
06:39PM 42.9739 -83.5628 268° West 459 528 32,000  Level Cleveland Center
06:40PM 42.9672 -83.7356 267° West 459 528 32,000  Level Cleveland Center
06:41PM 42.9519 -83.9078 263° West 459 528 32,000  Level Cleveland Center
06:42PM 42.9317 -84.0997 262° West 465 535 32,000  Level Cleveland Center
06:43PM 42.9139 -84.2689 262° West 465 535 32,000  Level Cleveland Center
06:44PM 42.8939 -84.4878 263° West 456 525 32,000  Level Chicago Center
06:45PM 42.8761 -84.6600 262° West 458 527 32,000  Level Chicago Center
06:46PM 42.8578 -84.8333 262° West 462 532 32,000  Level Chicago Center
06:47PM 42.8400 -85.0081 262° West 465 535 32,000  Level Chicago Center
06:48PM 42.8172 -85.2169 262° West 465 535 32,000  Level Chicago Center
06:49PM 42.7986 -85.3922 262° West 468 539 32,000 -780 Level Chicago Center
06:50PM 42.7747 -85.5647 259° West 462 532 30,500 -2,040 Descending Chicago Center
06:51PM 42.7456 -85.7253 256° West 441 507 27,900 -2,520 Descending Chicago Center
06:52PM 42.7181 -85.8808 257° West 425 489 25,300 -2,580 Descending Chicago Center
06:53PM 42.6886 -86.0392 256° West 427 491 22,600 -2,520 Descending Chicago Center
06:54PM 42.6622 -86.1894 257° West 412 474 20,100 -1,260 Descending Chicago Center
06:55PM 42.6361 -86.3225 255° West 372 428 20,100 -600 Level Chicago Center
06:56PM 42.6044 -86.4919 256° West 385 443 18,900 -1,680 Descending Chicago Center
06:57PM 42.5783 -86.6267 255° West 372 428 16,700 -1,920 Descending Chicago Center
06:59PM 42.5558 -86.7503 256° West 343 395 15,000 -1,440 Descending Chicago Center
07:00PM 42.5278 -86.8500 249° West 290 334 13,800 -1,560 Descending Chicago Center
07:01PM 42.5011 -86.9478 250° West 279 321 11,800 -1,920 Descending Chicago Center
07:02PM 42.4733 -87.0439 249° West 274 315 9,900 -1,380 Descending Chicago Center
07:03PM 42.4431 -87.1519 249° West 259 298 9,000 -480 Descending Chicago Center
07:04PM 42.4181 -87.2456 250° West 265 305 9,000 -720 Level Chicago Center
07:05PM 42.3667 -87.3833 243° Southwest 267 307 7,100 -1,020 Descending Chicago TRACON
07:06PM 42.3467 -87.4278 239° Southwest 267 307 7,000 -120 Descending Chicago Center
07:07PM 42.3139 -87.5064 241° Southwest 261 300 7,000  Level Chicago Center
07:08PM 42.2747 -87.5869 237° Southwest 260 299 7,000 -300 Level Chicago Center
07:09PM 42.2119 -87.6625 222° Southwest 255 293 6,500 -780 Descending Chicago Center
07:10PM 42.1564 -87.7181 217° Southwest 251 289 5,500 -1,320 Descending Chicago Center
07:11PM 42.1125 -87.7700 221° Southwest 221 254 3,800 -1,740 Descending Chicago Center
07:11PM 42.0833 -87.8000 217° Southwest 216 249 3,100 -1,260 Descending Chicago TRACON
07:12PM 42.0500 -87.8333 217° Southwest 176 203 2,100 -1,020 Descending Chicago TRACON